Time;durP1;ratioP1;P1;durP2;ratioP2;P2;SDS_P1;SDS_P2;PMS_P1;PMS_P2;Temp;Humidity;BMP_temperature;BMP_pressure;BME280_temperature;BME280_humidity;BME280_pressure;Samples;Min_cycle;Max_cycle;Signal;HPM_P1;HPM_P2
2022/10/02 00:00:16;;;;;;;2.30;0.82;;;13.60;99.90;;;;;;4967791;28;20488;-67
2022/10/02 00:03:07;;;;;;;1.27;1.00;;;13.70;99.90;;;;;;4966998;28;20059;-67
2022/10/02 00:05:41;;;;;;;3.17;1.42;;;13.60;99.90;;;;;;4933907;29;20087;-68
2022/10/02 00:08:30;;;;;;;3.65;0.88;;;13.60;99.90;;;;;;4932326;29;20046;-67
2022/10/02 00:11:15;;;;;;;3.53;0.95;;;13.70;99.90;;;;;;4932685;29;20039;-67
2022/10/02 00:13:55;;;;;;;3.72;1.55;;;13.60;99.90;;;;;;4932058;29;20547;-67
2022/10/02 00:16:50;;;;;;;1.52;0.68;;;13.70;99.90;;;;;;4932348;29;20040;-67
2022/10/02 00:19:18;;;;;;;4.47;0.82;;;13.70;99.90;;;;;;4932514;29;20035;-68
2022/10/02 00:22:17;;;;;;;0.45;0.32;;;13.70;99.90;;;;;;4933523;29;20122;-67
2022/10/02 00:25:01;;;;;;;11.10;1.08;;;13.70;99.90;;;;;;4934987;29;20043;-67
2022/10/02 00:28:15;;;;;;;4.25;1.63;;;13.70;99.90;;;;;;4937274;29;20035;-68
2022/10/02 00:31:06;;;;;;;3.67;0.70;;;13.70;99.90;;;;;;4936406;29;20024;-67
2022/10/02 00:33:58;;;;;;;3.20;0.55;;;13.70;99.90;;;;;;4936386;29;20049;-67
2022/10/02 00:36:58;;;;;;;12.73;1.10;;;13.70;99.90;;;;;;4921657;29;20050;-67
2022/10/02 00:40:13;;;;;;;2.33;0.82;;;13.80;99.90;;;;;;4937441;29;20036;-67
2022/10/02 00:43:15;;;;;;;2.72;0.85;;;13.80;99.90;;;;;;4935313;29;20567;-67
2022/10/02 00:46:31;;;;;;;2.42;0.77;;;13.80;99.90;;;;;;4922941;29;20439;-67
2022/10/02 00:49:22;;;;;;;0.75;0.50;;;13.70;99.90;;;;;;4936059;29;20035;-67
2022/10/02 00:52:12;;;;;;;5.45;1.75;;;13.80;99.90;;;;;;4907035;29;20059;-67
2022/10/02 00:55:09;;;;;;;1.15;0.80;;;13.80;99.90;;;;;;4937169;29;20071;-67
2022/10/02 00:58:00;;;;;;;3.20;0.98;;;13.80;99.90;;;;;;4936973;29;20028;-67
2022/10/02 01:00:26;;;;;;;7.95;1.67;;;13.90;99.90;;;;;;4937061;29;20090;-67
2022/10/02 01:03:29;;;;;;;2.83;0.75;;;13.90;99.90;;;;;;4936316;29;20432;-67
2022/10/02 01:05:55;;;;;;;2.03;0.95;;;13.90;99.90;;;;;;4952873;28;20019;-67
2022/10/02 01:08:21;;;;;;;5.30;0.88;;;13.90;99.90;;;;;;4964228;28;20043;-67
2022/10/02 01:10:47;;;;;;;1.48;0.63;;;13.90;99.90;;;;;;4963349;28;20035;-67
2022/10/02 01:13:13;;;;;;;1.77;1.10;;;13.90;99.90;;;;;;4989505;28;20059;-68
2022/10/02 01:15:49;;;;;;;1.38;0.63;;;13.80;99.90;;;;;;4961869;28;20118;-67
2022/10/02 01:18:15;;;;;;;1.90;1.02;;;13.90;99.90;;;;;;4935104;29;20042;-67
2022/10/02 01:20:48;;;;;;;3.55;0.63;;;13.90;99.90;;;;;;4935459;29;20028;-67
2022/10/02 01:23:44;;;;;;;3.28;0.77;;;13.80;99.90;;;;;;4936992;28;20032;-67
2022/10/02 01:26:09;;;;;;;6.45;1.25;;;13.80;99.90;;;;;;4974989;28;20149;-67
2022/10/02 01:28:35;;;;;;;5.90;1.02;;;13.80;99.90;;;;;;4974766;28;20106;-67
2022/10/02 01:31:13;;;;;;;3.78;0.90;;;13.90;99.90;;;;;;4971364;28;20057;-67
2022/10/02 01:33:40;;;;;;;2.58;0.93;;;13.90;99.90;;;;;;4953826;29;20067;-68
2022/10/02 01:36:12;;;;;;;1.02;0.40;;;13.80;99.90;;;;;;4953042;28;20631;-67
2022/10/02 01:38:39;;;;;;;10.43;1.65;;;13.80;99.90;;;;;;4955338;28;20074;-67
2022/10/02 01:41:06;;;;;;;9.55;0.80;;;13.80;99.90;;;;;;4962876;28;20034;-67
2022/10/02 01:43:41;;;;;;;0.65;0.45;;;13.80;99.90;;;;;;4974002;28;20022;-67
2022/10/02 01:46:46;;;;;;;1.65;0.73;;;13.80;99.90;;;;;;4989093;28;20441;-67
2022/10/02 01:49:58;;;;;;;15.15;1.58;;;13.80;99.90;;;;;;4973717;28;20041;-67
2022/10/02 01:52:52;;;;;;;0.93;0.60;;;13.80;99.90;;;;;;4974294;28;20478;-67
2022/10/02 01:55:33;;;;;;;1.70;0.75;;;13.90;99.90;;;;;;4989191;28;20042;-67
2022/10/02 01:58:19;;;;;;;5.78;0.85;;;13.90;99.90;;;;;;4988058;28;20058;-67
2022/10/02 02:01:14;;;;;;;3.25;0.98;;;13.90;99.90;;;;;;4974283;28;20051;-66
2022/10/02 02:03:59;;;;;;;2.47;0.45;;;14.00;99.90;;;;;;4987335;28;20066;-66
2022/10/02 02:07:03;;;;;;;1.48;0.60;;;13.90;99.90;;;;;;4988353;28;20033;-66
2022/10/02 02:10:07;;;;;;;1.15;0.68;;;13.90;99.90;;;;;;4974229;28;20114;-67
2022/10/02 02:12:44;;;;;;;2.40;0.60;;;14.00;99.90;;;;;;4973647;28;20027;-67
2022/10/02 02:15:37;;;;;;;2.80;0.95;;;13.90;99.90;;;;;;4962359;28;20402;-67
2022/10/02 02:18:25;;;;;;;5.57;0.77;;;13.90;99.90;;;;;;4934072;29;20038;-66
2022/10/02 02:20:55;;;;;;;0.95;0.95;;;13.90;99.90;;;;;;4935390;29;20062;-67
2022/10/02 02:23:27;;;;;;;0.50;0.50;;;14.00;99.90;;;;;;4933672;29;20047;-67
2022/10/02 02:26:01;;;;;;;1.35;0.70;;;14.00;99.90;;;;;;4934244;29;20066;-67
2022/10/02 02:28:30;;;;;;;12.65;1.67;;;14.00;99.90;;;;;;4934169;29;20035;-66
2022/10/02 02:31:00;;;;;;;6.47;0.80;;;14.00;99.90;;;;;;4934177;29;20038;-67
2022/10/02 02:33:31;;;;;;;1.42;0.98;;;13.90;99.90;;;;;;4933915;29;20036;-66
2022/10/02 02:36:03;;;;;;;1.30;0.80;;;13.90;99.90;;;;;;4935306;29;20036;-66
2022/10/02 02:38:35;;;;;;;10.07;1.88;;;13.90;99.90;;;;;;4933549;29;20428;-66
2022/10/02 02:41:11;;;;;;;2.58;0.95;;;13.90;99.90;;;;;;4933934;29;20096;-67
2022/10/02 02:43:47;;;;;;;4.00;1.00;;;13.90;99.90;;;;;;4934618;29;20114;-66
2022/10/02 02:47:10;;;;;;;8.55;1.15;;;14.00;99.90;;;;;;4933794;29;20493;-66
2022/10/02 02:50:04;;;;;;;5.43;1.00;;;13.90;99.90;;;;;;4933918;29;20035;-67
2022/10/02 02:53:15;;;;;;;4.65;1.02;;;13.90;99.90;;;;;;4933544;29;20086;-67
2022/10/02 02:55:57;;;;;;;2.45;1.20;;;13.80;99.90;;;;;;4933631;29;20031;-68
2022/10/02 02:58:55;;;;;;;3.15;0.95;;;13.80;99.90;;;;;;4933581;29;20040;-68
2022/10/02 03:01:21;;;;;;;3.10;1.35;;;13.80;99.90;;;;;;4934569;29;20031;-68
2022/10/02 03:03:47;;;;;;;5.20;0.98;;;13.90;99.90;;;;;;4934017;29;20035;-67
2022/10/02 03:06:19;;;;;;;3.60;1.42;;;13.90;99.90;;;;;;4934553;29;20380;-68
2022/10/02 03:08:49;;;;;;;2.78;1.00;;;13.80;99.90;;;;;;4934389;29;20051;-67
2022/10/02 03:11:44;;;;;;;3.20;0.73;;;13.80;99.90;;;;;;4933269;29;20035;-68
2022/10/02 03:14:25;;;;;;;6.70;1.67;;;13.90;99.90;;;;;;4934432;29;20075;-67
2022/10/02 03:17:07;;;;;;;3.25;1.25;;;13.90;99.90;;;;;;4934295;29;20092;-68
2022/10/02 03:20:16;;;;;;;9.80;1.58;;;13.80;99.90;;;;;;4933124;29;20403;-67
2022/10/02 03:22:58;;;;;;;5.18;1.20;;;13.90;99.90;;;;;;4927474;29;20123;-68
2022/10/02 03:25:43;;;;;;;5.28;2.05;;;13.80;99.90;;;;;;4947521;28;20566;-68
2022/10/02 03:28:40;;;;;;;1.88;1.27;;;13.90;99.90;;;;;;4934305;29;20039;-68
2022/10/02 03:31:07;;;;;;;5.20;1.10;;;13.90;99.90;;;;;;4933911;29;20044;-67
2022/10/02 03:33:35;;;;;;;2.45;1.20;;;13.80;99.90;;;;;;4933635;29;20032;-68
2022/10/02 03:36:01;;;;;;;14.10;0.98;;;13.80;99.90;;;;;;4934223;29;20035;-68
2022/10/02 03:38:27;;;;;;;1.20;0.70;;;13.90;99.90;;;;;;4932717;29;20051;-68
2022/10/02 03:40:57;;;;;;;3.80;1.45;;;13.90;99.90;;;;;;4933142;29;20032;-68
2022/10/02 03:43:27;;;;;;;2.50;1.27;;;13.90;99.90;;;;;;4932279;29;20505;-68
2022/10/02 03:45:52;;;;;;;0.52;0.38;;;13.90;99.90;;;;;;4934104;29;20065;-68
2022/10/02 03:48:19;;;;;;;0.95;0.70;;;13.80;99.90;;;;;;4933942;29;20028;-68
2022/10/02 03:50:45;;;;;;;2.33;1.10;;;13.90;99.90;;;;;;4933901;29;20042;-68
2022/10/02 03:53:18;;;;;;;6.28;1.83;;;13.90;99.90;;;;;;4932150;29;20099;-68
2022/10/02 03:56:00;;;;;;;3.95;1.30;;;13.90;99.90;;;;;;4932712;29;20062;-67
2022/10/02 03:58:26;;;;;;;3.13;1.33;;;13.90;99.90;;;;;;4932474;29;20510;-68
2022/10/02 04:01:04;;;;;;;7.43;1.25;;;13.90;99.90;;;;;;4933321;29;20039;-68
2022/10/02 04:03:36;;;;;;;3.45;1.30;;;13.90;99.90;;;;;;4933307;29;20036;-68
2022/10/02 04:06:32;;;;;;;8.23;0.90;;;13.90;99.90;;;;;;4932597;29;20032;-68
2022/10/02 04:09:05;;;;;;;3.42;0.85;;;13.90;99.90;;;;;;4933643;29;20122;-68
2022/10/02 04:11:39;;;;;;;1.73;0.60;;;13.90;99.90;;;;;;4933869;29;20075;-68
2022/10/02 04:14:29;;;;;;;2.88;0.68;;;13.90;99.90;;;;;;4932227;29;20035;-68
2022/10/02 04:17:12;;;;;;;5.60;1.50;;;13.90;99.90;;;;;;4933431;29;20373;-68
2022/10/02 04:19:54;;;;;;;2.97;1.25;;;13.90;99.90;;;;;;4933829;29;20031;-68
2022/10/02 04:22:41;;;;;;;7.07;1.30;;;13.90;99.90;;;;;;4946757;29;20103;-68
2022/10/02 04:25:20;;;;;;;16.70;1.98;;;13.90;99.90;;;;;;4947995;29;20038;-68
2022/10/02 04:28:13;;;;;;;1.00;0.73;;;13.80;99.90;;;;;;4932207;29;20031;-68
2022/10/02 04:30:39;;;;;;;5.80;1.08;;;13.80;99.90;;;;;;4947927;29;20387;-68
2022/10/02 04:33:18;;;;;;;9.80;1.45;;;13.80;99.90;;;;;;4933806;29;20114;-68
2022/10/02 04:36:08;;;;;;;6.88;1.42;;;13.80;99.90;;;;;;4948217;29;20123;-68
2022/10/02 04:39:25;;;;;;;8.82;1.15;;;13.80;99.90;;;;;;4933635;29;20100;-68
2022/10/02 04:42:38;;;;;;;7.57;1.42;;;13.80;99.90;;;;;;4933220;29;20355;-68
2022/10/02 04:45:49;;;;;;;5.25;1.17;;;13.80;99.90;;;;;;4933353;29;20042;-68
2022/10/02 04:49:08;;;;;;;1.17;0.52;;;13.80;99.90;;;;;;4932240;29;20443;-68
2022/10/02 04:52:05;;;;;;;2.30;0.77;;;13.80;99.90;;;;;;4933322;29;20388;-68
2022/10/02 04:55:20;;;;;;;7.68;0.77;;;13.80;99.90;;;;;;4933018;29;20042;-68
2022/10/02 04:57:55;;;;;;;8.52;1.17;;;13.70;99.90;;;;;;4921593;29;20054;-68
2022/10/02 05:00:24;;;;;;;8.50;1.40;;;13.60;99.90;;;;;;4933243;29;20039;-67
2022/10/02 05:03:17;;;;;;;2.08;0.70;;;13.70;99.90;;;;;;4947375;29;20043;-67
2022/10/02 05:06:37;;;;;;;1.80;0.98;;;13.70;99.90;;;;;;4947202;29;20075;-68
2022/10/02 05:09:36;;;;;;;14.98;5.57;;;13.60;99.90;;;;;;4932972;29;20095;-68
2022/10/02 05:12:35;;;;;;;2.70;1.17;;;13.60;99.90;;;;;;4949144;28;20028;-68
2022/10/02 05:15:31;;;;;;;3.90;0.88;;;13.60;99.90;;;;;;4960430;28;20030;-68
2022/10/02 05:18:34;;;;;;;2.90;1.75;;;13.60;99.90;;;;;;4960884;28;20031;-68
2022/10/02 05:21:28;;;;;;;6.28;0.80;;;13.60;99.90;;;;;;4955584;29;20804;-68
2022/10/02 05:24:53;;;;;;;6.13;1.17;;;13.60;99.90;;;;;;4954157;29;20050;-68
2022/10/02 05:28:08;;;;;;;1.90;0.80;;;13.50;99.90;;;;;;4952910;29;20051;-68
2022/10/02 05:30:45;;;;;;;1.38;0.75;;;13.60;99.90;;;;;;4955471;28;20058;-67
2022/10/02 05:33:27;;;;;;;2.08;1.02;;;13.60;99.90;;;;;;4954887;29;20034;-68
2022/10/02 05:36:17;;;;;;;3.40;0.50;;;13.70;99.90;;;;;;4955306;29;20037;-68
2022/10/02 05:39:06;;;;;;;5.43;1.27;;;13.70;99.90;;;;;;4955034;28;20058;-68
2022/10/02 05:42:09;;;;;;;4.78;1.58;;;13.70;99.90;;;;;;4969727;28;20039;-68
2022/10/02 05:44:46;;;;;;;8.02;1.38;;;13.70;99.90;;;;;;4955017;29;20074;-68
2022/10/02 05:47:25;;;;;;;1.55;0.73;;;13.70;99.90;;;;;;4969109;28;20113;-68
2022/10/02 05:49:58;;;;;;;7.30;1.20;;;13.70;99.90;;;;;;4970015;28;20035;-68
2022/10/02 05:52:36;;;;;;;2.95;1.02;;;13.70;99.90;;;;;;4969194;28;20031;-68
2022/10/02 05:55:34;;;;;;;2.72;1.15;;;13.70;99.90;;;;;;4969367;28;20031;-68
2022/10/02 05:58:18;;;;;;;1.60;1.33;;;13.70;99.90;;;;;;4969376;28;20034;-68
2022/10/02 06:01:06;;;;;;;0.95;0.73;;;13.70;99.90;;;;;;4969107;28;20027;-68
2022/10/02 06:03:39;;;;;;;1.98;0.65;;;13.70;99.90;;;;;;4953949;29;20031;-68
2022/10/02 06:06:15;;;;;;;7.68;1.63;;;13.70;99.90;;;;;;4954569;29;20035;-71
2022/10/02 06:09:15;;;;;;;8.80;1.90;;;13.70;99.90;;;;;;4967735;28;20049;-71
2022/10/02 06:11:46;;;;;;;1.88;0.88;;;13.70;99.90;;;;;;4951832;28;20442;-71
2022/10/02 06:14:19;;;;;;;7.63;1.83;;;13.70;99.90;;;;;;4954338;29;20027;-71
2022/10/02 06:17:12;;;;;;;2.65;1.00;;;13.70;99.90;;;;;;4951202;29;20077;-71
2022/10/02 06:20:00;;;;;;;6.50;0.88;;;13.80;99.90;;;;;;4943119;29;20038;-71
2022/10/02 06:22:45;;;;;;;10.07;1.23;;;13.70;99.90;;;;;;4967683;28;20040;-73
2022/10/02 06:25:23;;;;;;;9.70;1.40;;;13.80;99.90;;;;;;4969207;28;20054;-71
2022/10/02 06:28:10;;;;;;;5.65;2.30;;;13.80;99.90;;;;;;4968467;28;20735;-71
2022/10/02 06:30:40;;;;;;;8.85;1.30;;;13.70;99.90;;;;;;4968286;28;20031;-69
2022/10/02 06:33:32;;;;;;;3.17;1.23;;;13.70;99.90;;;;;;4968451;28;20038;-72
2022/10/02 06:36:16;;;;;;;4.13;1.13;;;13.70;99.90;;;;;;4966412;28;20047;-72
2022/10/02 06:39:35;;;;;;;1.45;0.65;;;13.60;99.90;;;;;;4953996;28;20031;-73
2022/10/02 06:42:51;;;;;;;3.38;0.75;;;13.60;99.90;;;;;;4947343;29;20043;-72
2022/10/02 06:46:07;;;;;;;6.78;1.55;;;13.60;99.90;;;;;;4947451;29;20031;-70
2022/10/02 06:48:39;;;;;;;1.02;0.85;;;13.50;99.90;;;;;;4934681;29;20400;-71
2022/10/02 06:51:42;;;;;;;0.68;0.50;;;13.50;99.90;;;;;;4934738;29;20539;-71
2022/10/02 06:54:42;;;;;;;3.70;1.45;;;13.50;99.90;;;;;;4946407;29;20044;-70
2022/10/02 06:57:52;;;;;;;6.25;1.38;;;13.60;99.90;;;;;;4934737;29;20035;-70
2022/10/02 07:00:20;;;;;;;6.38;1.30;;;13.60;99.90;;;;;;4939400;29;20120;-71
2022/10/02 07:03:37;;;;;;;3.20;1.02;;;13.60;99.90;;;;;;4953521;28;20047;-70
2022/10/02 07:06:32;;;;;;;7.38;1.23;;;13.60;99.90;;;;;;4953510;28;20038;-69
2022/10/02 07:12:07;;;;;;;1.75;0.88;;;13.50;99.90;;;;;;4966004;28;20062;-74
2022/10/02 07:15:04;;;;;;;5.38;0.82;;;13.50;99.90;;;;;;4951721;29;20039;-73
2022/10/02 07:18:00;;;;;;;5.40;0.88;;;13.50;99.90;;;;;;4959516;28;20066;-73
2022/10/02 07:20:55;;;;;;;4.18;1.23;;;13.50;99.90;;;;;;4971878;28;20165;-73
2022/10/02 07:23:55;;;;;;;4.65;2.05;;;13.60;99.90;;;;;;4965118;28;20047;-73
2022/10/02 07:26:36;;;;;;;2.20;0.52;;;13.60;99.90;;;;;;4985087;28;20026;-73
2022/10/02 07:29:46;;;;;;;1.13;0.87;;;13.60;99.90;;;;;;4972642;28;20089;-73
2022/10/02 07:32:47;;;;;;;1.38;0.50;;;13.60;99.90;;;;;;4952883;28;20283;-74
2022/10/02 07:35:43;;;;;;;5.25;1.08;;;13.50;99.90;;;;;;4952388;28;20027;-74
2022/10/02 07:38:22;;;;;;;2.55;0.70;;;13.50;99.90;;;;;;4952799;28;20126;-75
2022/10/02 07:41:41;;;;;;;1.27;0.98;;;13.40;99.90;;;;;;4964641;28;20030;-60
2022/10/02 07:44:29;;;;;;;1.67;1.05;;;13.50;99.90;;;;;;4960467;28;20526;-60
2022/10/02 07:47:45;;;;;;;5.50;1.48;;;13.50;99.90;;;;;;4972608;28;20039;-60
2022/10/02 07:50:47;;;;;;;0.63;0.55;;;13.50;99.90;;;;;;4971377;28;20034;-72
2022/10/02 07:53:31;;;;;;;6.72;1.20;;;13.50;99.90;;;;;;4986690;28;20042;-60
2022/10/02 07:55:59;;;;;;;1.35;0.63;;;13.50;99.90;;;;;;4971145;28;20030;-60
2022/10/02 07:58:49;;;;;;;1.15;0.43;;;13.40;99.90;;;;;;4970745;28;20054;-60
2022/10/02 08:01:27;;;;;;;6.82;1.05;;;13.40;99.90;;;;;;4969570;28;20063;-60
2022/10/02 08:04:23;;;;;;;10.63;1.17;;;13.40;99.90;;;;;;4985365;28;20574;-76
2022/10/02 08:07:01;;;;;;;2.25;1.00;;;13.30;99.90;;;;;;4971351;28;20045;-75
2022/10/02 08:09:41;;;;;;;1.13;0.80;;;13.40;99.90;;;;;;4970029;28;20038;-75
2022/10/02 08:12:35;;;;;;;1.75;0.90;;;13.40;99.90;;;;;;4970302;28;20038;-75
2022/10/02 08:15:04;;;;;;;2.72;0.93;;;13.40;99.90;;;;;;4969114;28;20097;-75
2022/10/02 08:17:56;;;;;;;1.83;0.60;;;13.40;99.90;;;;;;4969300;28;20121;-75
2022/10/02 08:20:33;;;;;;;;;;;13.50;99.90;;;;;;4971600;28;20041;-75
2022/10/02 08:23:39;;;;;;;1.98;0.68;;;13.50;99.90;;;;;;4969057;28;19932;-75
2022/10/02 08:26:35;;;;;;;5.82;0.50;;;13.40;99.90;;;;;;4970203;28;20031;-75
2022/10/02 08:29:15;;;;;;;1.98;1.38;;;13.50;99.90;;;;;;4970919;28;20098;-75
2022/10/02 08:31:41;;;;;;;0.97;0.60;;;13.40;99.90;;;;;;4970781;28;20553;-74
2022/10/02 08:34:19;;;;;;;2.72;1.08;;;13.40;99.90;;;;;;4971358;28;20102;-75
2022/10/02 08:37:13;;;;;;;4.55;1.98;;;13.40;99.90;;;;;;4970750;28;20031;-74
2022/10/02 08:39:51;;;;;;;0.30;0.30;;;13.50;99.90;;;;;;4971728;28;20394;-74
2022/10/02 08:42:39;;;;;;;0.68;0.47;;;13.50;99.90;;;;;;4971502;28;20364;-74
2022/10/02 08:45:32;;;;;;;2.63;0.45;;;13.50;99.90;;;;;;4971942;28;20503;-74
2022/10/02 08:48:05;;;;;;;0.30;0.30;;;13.40;99.90;;;;;;4975706;28;20030;-74
2022/10/02 08:50:51;;;;;;;1.45;0.77;;;13.50;99.90;;;;;;4975641;28;20037;-75
2022/10/02 08:54:08;;;;;;;3.42;0.60;;;13.40;99.90;;;;;;4975454;28;20031;-74
2022/10/02 08:57:11;;;;;;;1.08;0.32;;;13.50;99.90;;;;;;4974646;28;20034;-75
2022/10/02 09:00:07;;;;;;;0.60;0.40;;;13.60;99.90;;;;;;4975345;28;20038;-74
2022/10/02 09:02:56;;;;;;;1.13;0.57;;;13.50;99.90;;;;;;4974965;28;20042;-74
2022/10/02 09:06:05;;;;;;;0.25;0.25;;;13.50;99.90;;;;;;4975436;28;20685;-74
2022/10/02 09:09:27;;;;;;;2.63;0.60;;;13.50;99.90;;;;;;4975210;28;20077;-74
2022/10/02 09:12:14;;;;;;;0.47;0.38;;;13.60;99.90;;;;;;4975228;28;20383;-75
2022/10/02 09:14:49;;;;;;;0.38;0.28;;;13.50;99.90;;;;;;4975437;28;20133;-76
2022/10/02 09:17:16;;;;;;;0.10;0.10;;;13.40;99.90;;;;;;4974087;28;20030;-75
2022/10/02 09:20:05;;;;;;;1.27;0.60;;;13.40;99.90;;;;;;4975155;28;20176;-76
2022/10/02 09:23:07;;;;;;;4.05;0.45;;;13.40;99.90;;;;;;4974854;28;20097;-75
2022/10/02 09:25:45;;;;;;;8.07;0.93;;;13.40;99.90;;;;;;4974957;28;20030;-75
2022/10/02 09:28:50;;;;;;;22.30;7.45;;;13.40;99.90;;;;;;4974992;28;20030;-75
2022/10/02 09:31:48;;;;;;;4.05;1.95;;;13.50;99.90;;;;;;4974864;28;20039;-76
2022/10/02 09:35:05;;;;;;;3.40;1.65;;;13.50;99.90;;;;;;4973653;28;20030;-75
2022/10/02 09:38:07;;;;;;;1.38;0.68;;;13.50;99.90;;;;;;4973483;28;20170;-75
2022/10/02 09:41:13;;;;;;;0.68;0.60;;;13.50;99.90;;;;;;4973713;28;20030;-75
2022/10/02 09:44:09;;;;;;;0.45;0.30;;;13.60;99.90;;;;;;4974466;28;20086;-75
2022/10/02 09:47:05;;;;;;;3.33;0.80;;;13.60;99.90;;;;;;4974682;28;20570;-76
2022/10/02 09:50:12;;;;;;;0.30;0.30;;;13.50;99.90;;;;;;4974379;28;20181;-76
2022/10/02 09:53:22;;;;;;;0.75;0.45;;;13.60;99.90;;;;;;4974290;28;20364;-76
2022/10/02 09:56:17;;;;;;;0.75;0.50;;;13.60;99.90;;;;;;4974447;28;20034;-76
2022/10/02 09:59:03;;;;;;;0.93;0.40;;;13.50;99.90;;;;;;4973665;28;20486;-75
2022/10/02 10:02:00;;;;;;;0.80;0.30;;;13.50;99.90;;;;;;4974342;28;20039;-75
2022/10/02 10:05:12;;;;;;;0.20;0.20;;;13.60;99.90;;;;;;4973947;28;20035;-75
2022/10/02 10:08:31;;;;;;;0.57;0.32;;;13.50;99.90;;;;;;4974213;28;20039;-75
2022/10/02 10:11:00;;;;;;;0.93;0.50;;;13.60;99.90;;;;;;4974102;28;20038;-75
2022/10/02 10:14:02;;;;;;;0.98;0.60;;;13.50;99.90;;;;;;4973839;28;20034;-75
2022/10/02 10:16:55;;;;;;;0.60;0.40;;;13.50;99.90;;;;;;4974042;28;20062;-76
2022/10/02 10:20:00;;;;;;;3.60;0.60;;;13.50;99.90;;;;;;4973852;28;20137;-75
2022/10/02 10:23:06;;;;;;;0.82;0.40;;;13.50;99.90;;;;;;4973637;28;20050;-75
2022/10/02 10:25:50;;;;;;;0.70;0.63;;;13.50;99.90;;;;;;4973818;28;20121;-75
2022/10/02 10:28:43;;;;;;;0.63;0.47;;;13.50;99.90;;;;;;4973876;28;20495;-75
2022/10/02 10:31:37;;;;;;;0.20;0.20;;;13.60;99.90;;;;;;4973813;28;20593;-74
2022/10/02 10:34:31;;;;;;;0.30;0.13;;;13.70;99.90;;;;;;4973817;28;20031;-75
2022/10/02 10:39:55;;;;;;;1.00;0.40;;;13.70;99.90;;;;;;4972575;28;20074;-75
2022/10/02 10:42:45;;;;;;;1.35;0.40;;;13.60;99.90;;;;;;4972556;28;20031;-75
2022/10/02 10:45:50;;;;;;;0.30;0.20;;;13.60;99.90;;;;;;4973761;28;20034;-76
2022/10/02 10:48:50;;;;;;;0.40;0.40;;;13.70;99.90;;;;;;4973545;28;20073;-75
2022/10/02 10:51:58;;;;;;;0.30;0.30;;;13.60;99.90;;;;;;4973350;28;20034;-76
2022/10/02 10:55:01;;;;;;;0.47;0.47;;;13.60;99.90;;;;;;4949189;28;20039;-75
2022/10/02 10:58:13;;;;;;;0.80;0.40;;;13.70;99.90;;;;;;4973426;28;20031;-75
2022/10/02 11:01:17;;;;;;;0.50;0.30;;;13.80;99.90;;;;;;4972239;28;20030;-75
2022/10/02 11:04:38;;;;;;;0.55;0.52;;;13.90;99.90;;;;;;4972723;28;20039;-75
2022/10/02 11:07:49;;;;;;;0.38;0.28;;;14.00;99.90;;;;;;4941864;28;20125;-75
2022/10/02 11:10:46;;;;;;;0.77;0.30;;;13.80;99.90;;;;;;4971534;28;20058;-75
2022/10/02 11:13:48;;;;;;;0.95;0.50;;;13.90;99.90;;;;;;4973044;28;20031;-74
2022/10/02 11:16:23;;;;;;;0.55;0.32;;;13.90;99.90;;;;;;4972010;28;20034;-75
2022/10/02 11:19:04;;;;;;;0.68;0.38;;;13.90;99.90;;;;;;4973120;28;20062;-75
2022/10/02 11:22:09;;;;;;;0.50;0.40;;;13.90;99.90;;;;;;4971750;28;20085;-75
2022/10/02 11:25:24;;;;;;;0.45;0.35;;;13.90;99.90;;;;;;4972471;28;20049;-75
2022/10/02 11:28:17;;;;;;;0.93;0.32;;;13.90;99.90;;;;;;4971532;28;20047;-75
2022/10/02 11:31:04;;;;;;;0.65;0.43;;;14.00;99.90;;;;;;4972821;28;20035;-75
2022/10/02 11:34:22;;;;;;;0.30;0.25;;;13.90;99.90;;;;;;4972528;28;20046;-75
2022/10/02 11:37:12;;;;;;;1.27;0.47;;;13.90;99.90;;;;;;4973066;28;20057;-75
2022/10/02 11:39:58;;;;;;;1.10;0.52;;;13.90;99.90;;;;;;4972558;28;20035;-75
2022/10/02 11:43:10;;;;;;;0.70;0.40;;;13.90;99.90;;;;;;4972415;28;20026;-75
2022/10/02 11:46:08;;;;;;;2.15;1.20;;;14.00;99.90;;;;;;4958157;28;20034;-75
2022/10/02 11:49:12;;;;;;;1.23;0.85;;;14.10;99.90;;;;;;4971553;28;20058;-75
2022/10/02 11:52:04;;;;;;;2.80;0.77;;;14.10;99.90;;;;;;4972420;28;20038;-75
2022/10/02 11:55:14;;;;;;;3.75;2.40;;;14.10;99.90;;;;;;4972043;28;20037;-75
2022/10/02 11:57:59;;;;;;;1.58;0.70;;;14.20;99.90;;;;;;4972457;28;20545;-75
2022/10/02 12:00:52;;;;;;;0.50;0.38;;;14.00;99.90;;;;;;4972240;28;20030;-74
2022/10/02 12:04:09;;;;;;;1.52;1.00;;;14.10;99.90;;;;;;4971935;28;20385;-75
2022/10/02 12:06:59;;;;;;;0.77;0.60;;;14.00;99.90;;;;;;4972558;28;20030;-75
2022/10/02 12:09:53;;;;;;;0.75;0.57;;;14.10;99.90;;;;;;4970703;28;20206;-75
2022/10/02 12:12:40;;;;;;;0.60;0.50;;;14.10;99.90;;;;;;4970408;28;20035;-75
2022/10/02 12:15:12;;;;;;;0.47;0.45;;;14.00;99.90;;;;;;4971927;28;20038;-75
2022/10/02 12:17:51;;;;;;;;;;;14.00;99.90;;;;;;4972767;28;20046;-75
2022/10/02 12:27:01;;;;;;;1.42;0.50;;;14.20;99.90;;;;;;4964926;28;20534;-75
2022/10/02 12:29:51;;;;;;;1.58;0.90;;;14.00;99.90;;;;;;4978130;28;20038;-75
2022/10/02 12:32:45;;;;;;;1.48;0.70;;;14.10;99.90;;;;;;4977960;28;20026;-75
2022/10/02 12:35:44;;;;;;;1.35;0.63;;;14.20;99.90;;;;;;4977553;28;20033;-74
2022/10/02 12:38:39;;;;;;;1.08;0.65;;;14.20;99.90;;;;;;4978496;28;20457;-74
2022/10/02 12:41:51;;;;;;;1.38;0.77;;;14.20;99.90;;;;;;4978172;28;20039;-74
2022/10/02 12:44:57;;;;;;;1.05;0.47;;;14.10;99.90;;;;;;4976916;28;20126;-74
2022/10/02 12:47:28;;;;;;;0.65;0.40;;;14.20;99.90;;;;;;4978215;28;20049;-75
2022/10/02 12:50:12;;;;;;;1.13;0.57;;;14.20;99.90;;;;;;4978276;28;20487;-75
2022/10/02 12:53:06;;;;;;;0.52;0.30;;;14.10;99.90;;;;;;4978146;28;20035;-74
2022/10/02 12:55:37;;;;;;;0.30;0.30;;;14.20;99.90;;;;;;4976841;28;20042;-75
2022/10/02 12:58:32;;;;;;;;;;;14.20;99.90;;;;;;4977810;28;20497;-75
2022/10/02 13:01:43;;;;;;;1.05;0.82;;;14.20;99.90;;;;;;4973415;28;19916;-75
2022/10/02 13:04:51;;;;;;;2.72;0.98;;;14.30;99.90;;;;;;4977796;28;20139;-74
2022/10/02 13:08:04;;;;;;;0.85;0.45;;;14.30;99.90;;;;;;4967550;28;20035;-75
2022/10/02 13:10:39;;;;;;;0.80;0.50;;;14.30;99.90;;;;;;4977836;28;20041;-75
2022/10/02 13:13:50;;;;;;;1.35;0.77;;;14.20;99.90;;;;;;4976703;28;20109;-75
2022/10/02 13:16:47;;;;;;;1.23;0.70;;;14.10;99.90;;;;;;4978361;28;20034;-75
2022/10/02 13:19:50;;;;;;;1.40;0.73;;;14.10;99.90;;;;;;4953053;28;20035;-74
2022/10/02 13:22:50;;;;;;;0.32;0.25;;;14.10;99.90;;;;;;4976802;28;20027;-75
2022/10/02 13:25:44;;;;;;;0.68;0.38;;;14.10;99.90;;;;;;4977051;28;20475;-75
2022/10/02 13:29:04;;;;;;;1.10;0.77;;;14.10;99.90;;;;;;4977924;28;20684;-75
2022/10/02 13:31:44;;;;;;;0.70;0.40;;;14.00;99.90;;;;;;4954311;28;20043;-75
2022/10/02 13:34:36;;;;;;;0.95;0.60;;;14.00;99.90;;;;;;4973476;28;20054;-75
2022/10/02 13:37:14;;;;;;;1.27;0.77;;;14.00;99.90;;;;;;4973694;28;20058;-75
2022/10/02 13:39:51;;;;;;;0.80;0.47;;;14.00;99.90;;;;;;4974914;28;20035;-75
2022/10/02 13:42:53;;;;;;;1.75;0.65;;;14.00;99.90;;;;;;4974335;28;20034;-75
2022/10/02 13:45:48;;;;;;;1.45;1.05;;;14.00;99.90;;;;;;4973820;28;20022;-75
2022/10/02 13:49:02;;;;;;;0.63;0.43;;;14.10;99.90;;;;;;4973715;28;20026;-74
2022/10/02 13:51:45;;;;;;;2.58;0.32;;;14.00;99.90;;;;;;4973180;28;20398;-74
2022/10/02 13:55:05;;;;;;;1.50;0.40;;;14.00;99.90;;;;;;4974331;28;20031;-75
2022/10/02 13:58:04;;;;;;;1.20;0.68;;;14.10;99.90;;;;;;4964199;28;20050;-75
2022/10/02 14:00:43;;;;;;;2.47;0.43;;;14.10;99.90;;;;;;4974108;28;20047;-75
2022/10/02 14:03:42;;;;;;;2.08;1.05;;;14.10;99.90;;;;;;4972531;28;20482;-75
2022/10/02 14:06:48;;;;;;;1.42;0.70;;;14.00;99.90;;;;;;4973276;28;20039;-75
2022/10/02 14:09:39;;;;;;;3.03;1.75;;;14.00;99.90;;;;;;4973272;28;20458;-75
2022/10/02 14:12:33;;;;;;;0.50;0.30;;;14.10;99.90;;;;;;4973011;28;20039;-75
2022/10/02 14:15:01;;;;;;;0.47;0.32;;;14.00;99.90;;;;;;4973140;28;20483;-75
2022/10/02 14:17:59;;;;;;;1.08;0.47;;;14.00;99.90;;;;;;4973732;28;20039;-75
2022/10/02 14:20:59;;;;;;;8.80;1.20;;;14.00;99.90;;;;;;4974006;28;20037;-74
2022/10/02 14:23:53;;;;;;;0.85;0.38;;;14.00;99.90;;;;;;4973634;28;20105;-75
2022/10/02 14:26:29;;;;;;;1.15;0.82;;;13.90;99.90;;;;;;4987289;28;20041;-74
2022/10/02 14:29:39;;;;;;;0.75;0.40;;;13.90;99.90;;;;;;4973865;28;20038;-75
2022/10/02 14:32:41;;;;;;;0.73;0.35;;;13.90;99.90;;;;;;4987892;28;20390;-75
2022/10/02 14:35:44;;;;;;;0.38;0.32;;;13.80;99.90;;;;;;4973678;28;20093;-74
2022/10/02 14:38:29;;;;;;;3.35;0.73;;;13.80;99.90;;;;;;4988198;28;20050;-75
2022/10/02 14:41:00;;;;;;;2.50;0.75;;;13.70;99.90;;;;;;4973543;28;20034;-74
2022/10/02 14:43:38;;;;;;;;;;;13.80;99.90;;;;;;4987451;28;20542;-74
2022/10/02 14:46:19;;;;;;;0.65;0.60;;;13.80;99.90;;;;;;4973604;28;20358;-75
2022/10/02 14:48:54;;;;;;;10.05;5.03;;;13.90;99.90;;;;;;4973573;28;20039;-75
2022/10/02 14:51:56;;;;;;;3.97;2.45;;;14.00;99.90;;;;;;4973383;28;20305;-75
2022/10/02 14:54:54;;;;;;;2.15;1.58;;;14.00;99.90;;;;;;4973195;28;20109;-75
2022/10/02 14:57:53;;;;;;;7.57;0.40;;;14.00;99.90;;;;;;4973250;28;20030;-75